Grand Mercury — HOOC — position and weather

sailwx.info

Track history (hours):
 
Tides and Currents Weather Stations Pressure Air Temp Water Temp Dewpoint Dewpoint Depression Visibility Wind Speed Wind Dir Waves Ship Positions

Grand Mercury

Last reported at 2015-Jul-31 15:24 UTC. Time now 2015-Aug-01 13:53 UTC.
Position N 34°59' E 019°38'.

Length 200 m; draft 9.2 m.

Type: Cargo ship. MMSI: 355649000.

Date/timePositionNaut miles runAvg speedWind from/ knotsBaromVisibWave heightAir tempDewpointWater temp
2015-Jul-31 15:24N 34°59' E 019°38'12817.9
2015-Jul-31 08:14N 35°39' E 017°09'3118.1
2015-Jul-31 06:30N 35°49' E 016°33'1717.7
2015-Jul-31 05:32N 35°54' E 016°13'1817.5
2015-Jul-31 04:32N 35°59' E 015°52'1717.5
2015-Jul-31 03:33N 36°04' E 015°31'1817.6
2015-Jul-31 02:33N 36°09' E 015°11'1817.7
2015-Jul-31 01:33N 36°15' E 014°50'1817.9
2015-Jul-31 00:33N 36°21' E 014°29'1817.8
2015-Jul-30 23:33N 36°26' E 014°08'1817.9
2015-Jul-30 22:33N 36°32' E 013°47'1817.6
2015-Jul-30 21:33N 36°37' E 013°26'1717.2
2015-Jul-30 20:33N 36°43' E 013°06'1717.2
2015-Jul-30 19:33N 36°48' E 012°45'1717.2
2015-Jul-30 18:33N 36°54' E 012°25'1717.1
2015-Jul-30 17:33N 37°01' E 012°05'1616.6
2015-Jul-30 16:33N 37°08' E 011°46'1616.4
2015-Jul-30 15:33N 37°14' E 011°28'1817.8
2015-Jul-30 14:33N 37°22' E 011°08'1818.1
2015-Jul-30 13:33N 37°28' E 010°46'1817.6
2015-Jul-30 12:33N 37°33' E 010°25'1717.4
2015-Jul-30 11:33N 37°34' E 010°03'1817.3
2015-Jul-30 10:33N 37°30' E 009°41'1817.5
2015-Jul-30 09:33N 37°26' E 009°20'1717.3
2015-Jul-30 08:33N 37°22' E 008°58'1717.0
2015-Jul-30 07:33N 37°18' E 008°38'20216.8
2015-Jul-29 19:31N 37°11' E 004°24'1717.3
2015-Jul-29 18:34N 37°10' E 004°03'1817.5
2015-Jul-29 17:32N 37°09' E 003°40'2317.5
2015-Jul-29 16:13N 37°06' E 003°12'1217.7
2015-Jul-29 15:33N 37°04' E 002°57'1817.5
2015-Jul-29 14:33N 37°01' E 002°36'1818.3
2015-Jul-29 13:33N 36°57' E 002°13'1717.2
2015-Jul-29 12:33N 36°54' E 001°52'1717.2
2015-Jul-29 11:33N 36°51' E 001°31'1817.3
2015-Jul-29 10:32N 36°47' E 001°09'1918.3
2015-Jul-29 09:30N 36°44' E 000°46'1918.0
2015-Jul-29 08:28N 36°41' E 000°23'1917.9
2015-Jul-29 07:26N 36°37' E 000°00'1617.7
2015-Jul-29 06:30N 36°34' W 000°20'1717.9
2015-Jul-29 05:33N 36°31' W 000°40'1817.8
2015-Jul-29 04:33N 36°28' W 001°03'2017.8
2015-Jul-29 03:25N 36°24' W 001°27'1617.5
2015-Jul-29 02:32N 36°22' W 001°46'20318.4
2015-Jul-28 15:30N 35°54' W 005°55'1818.8
2015-Jul-28 14:33N 35°54' W 006°17'1818.4
2015-Jul-28 13:33N 35°59' W 006°38'1818.1
2015-Jul-28 12:34N 36°04' W 006°60'1818.3
2015-Jul-28 11:33N 36°09' W 007°22'3617.7
2015-Jul-28 09:32N 36°19' W 008°04'2217.6
2015-Jul-28 08:16N 36°24' W 008°31'6616.0
2015-Jul-28 04:09N 37°02' W 009°38'1117.6
2015-Jul-28 03:32N 37°13' W 009°41'1818.0
2015-Jul-28 02:33N 37°30' W 009°46'1817.7
2015-Jul-28 01:33N 37°48' W 009°51'1817.9
2015-Jul-28 00:34N 38°05' W 009°56'1817.8
2015-Jul-27 23:33N 38°22' W 010°01'1817.8
2015-Jul-27 22:33N 38°40' W 010°05'1817.7
2015-Jul-27 21:33N 38°58' W 010°06'1817.7
2015-Jul-27 20:33N 39°15' W 010°06'1818.1
2015-Jul-27 19:33N 39°33' W 010°06'1817.9
2015-Jul-27 18:33N 39°51' W 010°07'1818.0
2015-Jul-27 17:33N 40°09' W 010°07'72915.4
2015-Jul-25 18:09N 50°22' W 000°47'1216.7
2015-Jul-25 17:26N 50°25' W 000°29'1516.2
2015-Jul-25 16:30N 50°29' W 000°06'1515.8
2015-Jul-25 15:34N 50°33' E 000°17'1615.6
2015-Jul-25 14:33N 50°39' E 000°40'1716.8
2015-Jul-25 13:33N 50°50' E 001°00'1818.4
2015-Jul-25 12:33N 51°02' E 001°22'1918.7
2015-Jul-25 11:33N 51°13' E 001°46'1717.1
2015-Jul-25 10:33N 51°28' E 001°60'1615.8
2015-Jul-25 09:33N 51°40' E 002°16'7715.4
2015-Jul-25 04:33N 52°41' E 003°34'1817.8
2015-Jul-25 03:33N 52°54' E 003°54'1818.2
2015-Jul-25 02:33N 53°06' E 004°16'1816.6
2015-Jul-25 01:27N 53°22' E 004°32'1315.0
2015-Jul-25 00:34N 53°31' E 004°49'1716.6
2015-Jul-24 23:34N 53°36' E 005°15'1716.9
2015-Jul-24 22:34N 53°42' E 005°42'1817.7
2015-Jul-24 21:31N 53°50' E 006°10'3225.8
2015-Jul-24 20:17N 53°55' E 007°04'4 6.0
2015-Jul-24 19:33N 53°56' E 007°11'1717.4
2015-Jul-24 18:33N 53°58' E 007°40'1414.5
2015-Jul-24 17:33N 53°51' E 008°02'1616.3
2015-Jul-24 16:33N 53°40' E 008°23'9 8.6
2015-Jul-24 15:32N 53°34' E 008°33'1 0.5
2015-Jul-24 14:32N 53°35' E 008°33'0 0.0
2015-Jul-24 13:32N 53°35' E 008°33'0 0.0
2015-Jul-24 12:32N 53°35' E 008°33'0 0.0
2015-Jul-24 11:32N 53°35' E 008°33'0 0.0
2015-Jul-24 10:32N 53°35' E 008°33'0 0.0
2015-Jul-24 09:32N 53°35' E 008°33'0 0.0
2015-Jul-24 08:32N 53°35' E 008°33'0 0.0
2015-Jul-24 07:32N 53°35' E 008°33'0 0.0
2015-Jul-24 06:32N 53°35' E 008°33'0 0.0
2015-Jul-24 05:32N 53°35' E 008°33'0 0.0
2015-Jul-24 04:32N 53°35' E 008°33'0 0.0
2015-Jul-24 03:32N 53°35' E 008°33'0 0.0
2015-Jul-24 02:32N 53°35' E 008°33'0 0.0
2015-Jul-24 01:32N 53°35' E 008°33'0 0.0
2015-Jul-24 00:32N 53°35' E 008°33'0 0.0
2015-Jul-23 23:32N 53°35' E 008°33'0 0.0
2015-Jul-23 22:32N 53°35' E 008°33'0 0.0
2015-Jul-23 21:32N 53°35' E 008°33'0 0.0
2015-Jul-23 20:29N 53°35' E 008°33'0 0.0
2015-Jul-23 19:32N 53°35' E 008°33'0 0.0
2015-Jul-23 18:32N 53°35' E 008°33'0 0.0
2015-Jul-23 17:32N 53°35' E 008°33'0 0.0
2015-Jul-23 16:32N 53°35' E 008°33'0 0.0
2015-Jul-23 15:32N 53°35' E 008°33'0 0.0
2015-Jul-23 14:32N 53°35' E 008°33'0 0.0
2015-Jul-23 13:32N 53°35' E 008°33'0 0.0
2015-Jul-23 12:32N 53°35' E 008°33'0 0.0
2015-Jul-23 11:32N 53°35' E 008°33'0 0.0
2015-Jul-23 10:32N 53°35' E 008°33'0 0.0
2015-Jul-23 09:33N 53°35' E 008°33'0 0.0
2015-Jul-23 08:33N 53°35' E 008°33'0 0.2
2015-Jul-23 07:34N 53°34' E 008°33'0 0.4
2015-Jul-23 06:33N 53°34' E 008°32'1111.4
2015-Jul-23 05:34N 53°42' E 008°19'1615.5
2015-Jul-23 04:33N 53°51' E 007°57'1111.3
2015-Jul-23 03:33N 53°54' E 007°38'10 9.7
2015-Jul-23 02:33N 53°53' E 007°22'1211.5
2015-Jul-23 01:33N 53°50' E 007°03'1212.1
2015-Jul-23 00:32N 53°48' E 006°43'1312.3
2015-Jul-22 23:29N 53°45' E 006°22'1112.2
2015-Jul-22 22:33N 53°42' E 006°03'1312.9
2015-Jul-22 21:33N 53°38' E 005°43'1515.2
2015-Jul-22 20:34N 53°33' E 005°18'1515.4
2015-Jul-22 19:33N 53°27' E 004°55'1716.5
2015-Jul-22 18:33N 53°15' E 004°36'1818.3
2015-Jul-22 17:34N 52°59' E 004°20'1717.4
2015-Jul-22 16:33N 52°45' E 004°04'1817.4
2015-Jul-22 15:33N 52°34' E 003°41'1717.0
2015-Jul-22 14:33N 52°19' E 003°28'5217.5
2015-Jul-22 11:34N 51°41' E 002°29'1717.0
2015-Jul-22 10:33N 51°28' E 002°11'1717.1
2015-Jul-22 09:33N 51°16' E 001°52'1615.8
2015-Jul-22 08:33N 51°03' E 001°37'1717.2
2015-Jul-22 07:33N 50°48' E 001°24'1817.2
2015-Jul-22 06:31N 50°35' E 001°06'6516.4
2015-Jul-22 02:33N 50°32' W 000°36'1716.6
2015-Jul-22 01:34N 50°42' W 000°58'1413.9
2015-Jul-22 00:34N 50°47' W 001°18'8 7.4
2015-Jul-21 23:32N 50°53' W 001°24'0 0.1
2015-Jul-21 22:32N 50°53' W 001°24'0 0.0
2015-Jul-21 21:33N 50°53' W 001°24'0 0.0
2015-Jul-21 20:34N 50°53' W 001°24'0 0.0
2015-Jul-21 19:33N 50°53' W 001°24'0 0.0
2015-Jul-21 18:34N 50°53' W 001°24'0 0.0
2015-Jul-21 17:34N 50°53' W 001°24'0 0.0
2015-Jul-21 16:34N 50°53' W 001°24'0 0.0
2015-Jul-21 15:34N 50°53' W 001°24'  
Track history (hours):
 
Tides and Currents Weather Stations Pressure Air Temp Water Temp Dewpoint Dewpoint Depression Visibility Wind Speed Wind Dir Waves Ship Positions

Grand Mercury

Last reported at 2015-Jul-31 15:24 UTC. Time now 2015-Aug-01 13:53 UTC.
Position N 34°59' E 019°38'.

Length 200 m; draft 9.2 m.

Type: Cargo ship. MMSI: 355649000.

Date/timePositionNaut miles runAvg speedWind from/ knotsBaromVisibWave heightAir tempDewpointWater temp
2015-Jul-31 15:24N 34°59' E 019°38'12817.9
2015-Jul-31 08:14N 35°39' E 017°09'3118.1
2015-Jul-31 06:30N 35°49' E 016°33'1717.7
2015-Jul-31 05:32N 35°54' E 016°13'1817.5
2015-Jul-31 04:32N 35°59' E 015°52'1717.5
2015-Jul-31 03:33N 36°04' E 015°31'1817.6
2015-Jul-31 02:33N 36°09' E 015°11'1817.7
2015-Jul-31 01:33N 36°15' E 014°50'1817.9
2015-Jul-31 00:33N 36°21' E 014°29'1817.8
2015-Jul-30 23:33N 36°26' E 014°08'1817.9
2015-Jul-30 22:33N 36°32' E 013°47'1817.6
2015-Jul-30 21:33N 36°37' E 013°26'1717.2
2015-Jul-30 20:33N 36°43' E 013°06'1717.2
2015-Jul-30 19:33N 36°48' E 012°45'1717.2
2015-Jul-30 18:33N 36°54' E 012°25'1717.1
2015-Jul-30 17:33N 37°01' E 012°05'1616.6
2015-Jul-30 16:33N 37°08' E 011°46'1616.4
2015-Jul-30 15:33N 37°14' E 011°28'1817.8
2015-Jul-30 14:33N 37°22' E 011°08'1818.1
2015-Jul-30 13:33N 37°28' E 010°46'1817.6
2015-Jul-30 12:33N 37°33' E 010°25'1717.4
2015-Jul-30 11:33N 37°34' E 010°03'1817.3
2015-Jul-30 10:33N 37°30' E 009°41'1817.5
2015-Jul-30 09:33N 37°26' E 009°20'1717.3
2015-Jul-30 08:33N 37°22' E 008°58'1717.0
2015-Jul-30 07:33N 37°18' E 008°38'20216.8
2015-Jul-29 19:31N 37°11' E 004°24'1717.3
2015-Jul-29 18:34N 37°10' E 004°03'1817.5
2015-Jul-29 17:32N 37°09' E 003°40'2317.5
2015-Jul-29 16:13N 37°06' E 003°12'1217.7
2015-Jul-29 15:33N 37°04' E 002°57'1817.5
2015-Jul-29 14:33N 37°01' E 002°36'1818.3
2015-Jul-29 13:33N 36°57' E 002°13'1717.2
2015-Jul-29 12:33N 36°54' E 001°52'1717.2
2015-Jul-29 11:33N 36°51' E 001°31'1817.3
2015-Jul-29 10:32N 36°47' E 001°09'1918.3
2015-Jul-29 09:30N 36°44' E 000°46'1918.0
2015-Jul-29 08:28N 36°41' E 000°23'1917.9
2015-Jul-29 07:26N 36°37' E 000°00'1617.7
2015-Jul-29 06:30N 36°34' W 000°20'1717.9
2015-Jul-29 05:33N 36°31' W 000°40'1817.8
2015-Jul-29 04:33N 36°28' W 001°03'2017.8
2015-Jul-29 03:25N 36°24' W 001°27'1617.5
2015-Jul-29 02:32N 36°22' W 001°46'20318.4
2015-Jul-28 15:30N 35°54' W 005°55'1818.8
2015-Jul-28 14:33N 35°54' W 006°17'1818.4
2015-Jul-28 13:33N 35°59' W 006°38'1818.1
2015-Jul-28 12:34N 36°04' W 006°60'1818.3
2015-Jul-28 11:33N 36°09' W 007°22'3617.7
2015-Jul-28 09:32N 36°19' W 008°04'2217.6
2015-Jul-28 08:16N 36°24' W 008°31'6616.0
2015-Jul-28 04:09N 37°02' W 009°38'1117.6
2015-Jul-28 03:32N 37°13' W 009°41'1818.0
2015-Jul-28 02:33N 37°30' W 009°46'1817.7
2015-Jul-28 01:33N 37°48' W 009°51'1817.9
2015-Jul-28 00:34N 38°05' W 009°56'1817.8
2015-Jul-27 23:33N 38°22' W 010°01'1817.8
2015-Jul-27 22:33N 38°40' W 010°05'1817.7
2015-Jul-27 21:33N 38°58' W 010°06'1817.7
2015-Jul-27 20:33N 39°15' W 010°06'1818.1
2015-Jul-27 19:33N 39°33' W 010°06'1817.9
2015-Jul-27 18:33N 39°51' W 010°07'1818.0
2015-Jul-27 17:33N 40°09' W 010°07'72915.4
2015-Jul-25 18:09N 50°22' W 000°47'1216.7
2015-Jul-25 17:26N 50°25' W 000°29'1516.2
2015-Jul-25 16:30N 50°29' W 000°06'1515.8
2015-Jul-25 15:34N 50°33' E 000°17'1615.6
2015-Jul-25 14:33N 50°39' E 000°40'1716.8
2015-Jul-25 13:33N 50°50' E 001°00'1818.4
2015-Jul-25 12:33N 51°02' E 001°22'1918.7
2015-Jul-25 11:33N 51°13' E 001°46'1717.1
2015-Jul-25 10:33N 51°28' E 001°60'1615.8
2015-Jul-25 09:33N 51°40' E 002°16'7715.4
2015-Jul-25 04:33N 52°41' E 003°34'1817.8
2015-Jul-25 03:33N 52°54' E 003°54'1818.2
2015-Jul-25 02:33N 53°06' E 004°16'1816.6
2015-Jul-25 01:27N 53°22' E 004°32'1315.0
2015-Jul-25 00:34N 53°31' E 004°49'1716.6
2015-Jul-24 23:34N 53°36' E 005°15'1716.9
2015-Jul-24 22:34N 53°42' E 005°42'1817.7
2015-Jul-24 21:31N 53°50' E 006°10'3225.8
2015-Jul-24 20:17N 53°55' E 007°04'4 6.0
2015-Jul-24 19:33N 53°56' E 007°11'1717.4
2015-Jul-24 18:33N 53°58' E 007°40'1414.5
2015-Jul-24 17:33N 53°51' E 008°02'1616.3
2015-Jul-24 16:33N 53°40' E 008°23'9 8.6
2015-Jul-24 15:32N 53°34' E 008°33'1 0.5
2015-Jul-24 14:32N 53°35' E 008°33'0 0.0
2015-Jul-24 13:32N 53°35' E 008°33'0 0.0
2015-Jul-24 12:32N 53°35' E 008°33'0 0.0
2015-Jul-24 11:32N 53°35' E 008°33'0 0.0
2015-Jul-24 10:32N 53°35' E 008°33'0 0.0
2015-Jul-24 09:32N 53°35' E 008°33'0 0.0
2015-Jul-24 08:32N 53°35' E 008°33'0 0.0
2015-Jul-24 07:32N 53°35' E 008°33'0 0.0
2015-Jul-24 06:32N 53°35' E 008°33'0 0.0
2015-Jul-24 05:32N 53°35' E 008°33'0 0.0
2015-Jul-24 04:32N 53°35' E 008°33'0 0.0
2015-Jul-24 03:32N 53°35' E 008°33'0 0.0
2015-Jul-24 02:32N 53°35' E 008°33'0 0.0
2015-Jul-24 01:32N 53°35' E 008°33'0 0.0
2015-Jul-24 00:32N 53°35' E 008°33'0 0.0
2015-Jul-23 23:32N 53°35' E 008°33'0 0.0
2015-Jul-23 22:32N 53°35' E 008°33'0 0.0
2015-Jul-23 21:32N 53°35' E 008°33'0 0.0
2015-Jul-23 20:29N 53°35' E 008°33'0 0.0
2015-Jul-23 19:32N 53°35' E 008°33'0 0.0
2015-Jul-23 18:32N 53°35' E 008°33'0 0.0
2015-Jul-23 17:32N 53°35' E 008°33'0 0.0
2015-Jul-23 16:32N 53°35' E 008°33'0 0.0
2015-Jul-23 15:32N 53°35' E 008°33'0 0.0
2015-Jul-23 14:32N 53°35' E 008°33'0 0.0
2015-Jul-23 13:32N 53°35' E 008°33'0 0.0
2015-Jul-23 12:32N 53°35' E 008°33'0 0.0
2015-Jul-23 11:32N 53°35' E 008°33'0 0.0
2015-Jul-23 10:32N 53°35' E 008°33'0 0.0
2015-Jul-23 09:33N 53°35' E 008°33'0 0.0
2015-Jul-23 08:33N 53°35' E 008°33'0 0.2
2015-Jul-23 07:34N 53°34' E 008°33'0 0.4
2015-Jul-23 06:33N 53°34' E 008°32'1111.4
2015-Jul-23 05:34N 53°42' E 008°19'1615.5
2015-Jul-23 04:33N 53°51' E 007°57'1111.3
2015-Jul-23 03:33N 53°54' E 007°38'10 9.7
2015-Jul-23 02:33N 53°53' E 007°22'1211.5
2015-Jul-23 01:33N 53°50' E 007°03'1212.1
2015-Jul-23 00:32N 53°48' E 006°43'1312.3
2015-Jul-22 23:29N 53°45' E 006°22'1112.2
2015-Jul-22 22:33N 53°42' E 006°03'1312.9
2015-Jul-22 21:33N 53°38' E 005°43'1515.2
2015-Jul-22 20:34N 53°33' E 005°18'1515.4
2015-Jul-22 19:33N 53°27' E 004°55'1716.5
2015-Jul-22 18:33N 53°15' E 004°36'1818.3
2015-Jul-22 17:34N 52°59' E 004°20'1717.4
2015-Jul-22 16:33N 52°45' E 004°04'1817.4
2015-Jul-22 15:33N 52°34' E 003°41'1717.0
2015-Jul-22 14:33N 52°19' E 003°28'5217.5
2015-Jul-22 11:34N 51°41' E 002°29'1717.0
2015-Jul-22 10:33N 51°28' E 002°11'1717.1
2015-Jul-22 09:33N 51°16' E 001°52'1615.8
2015-Jul-22 08:33N 51°03' E 001°37'1717.2
2015-Jul-22 07:33N 50°48' E 001°24'1817.2
2015-Jul-22 06:31N 50°35' E 001°06'6516.4
2015-Jul-22 02:33N 50°32' W 000°36'1716.6
2015-Jul-22 01:34N 50°42' W 000°58'1413.9
2015-Jul-22 00:34N 50°47' W 001°18'8 7.4
2015-Jul-21 23:32N 50°53' W 001°24'0 0.1
2015-Jul-21 22:32N 50°53' W 001°24'0 0.0
2015-Jul-21 21:33N 50°53' W 001°24'0 0.0
2015-Jul-21 20:34N 50°53' W 001°24'0 0.0
2015-Jul-21 19:33N 50°53' W 001°24'0 0.0
2015-Jul-21 18:34N 50°53' W 001°24'0 0.0
2015-Jul-21 17:34N 50°53' W 001°24'0 0.0
2015-Jul-21 16:34N 50°53' W 001°24'0 0.0
2015-Jul-21 15:34N 50°53' W 001°24'  

Dump ship's entire track history